Upton upon Severn, United Kingdom
Current Conditions -  °F | °C
As of 7:20 PM on Wednesday 28 Jan 2015 (Local Time) from EGBJ Reporting Station
Few Clouds Few Clouds  
Wind Chill: 31°   Ceiling: Unl
Heat Index: 37°   Visibility: 6mi
Dew Point: 30°   Wind: 9mph
Humidity: 75%   Direction: 230°SW
Pressure: 29.59"   Gusts: NA
Location:  52.06°N, 2.22°W
Report Text: EGBJ 281920Z 23008KT 200V260 9999 FEW014 03/M01 Q1002
Loading
Personal Weather Stations






























Interactive Weather Map New forecast layout! Learn more

10-Day Weather Forecast

Advertisements
Track Severe Weather on mobile